sensor_id;sensor_type;location;lat;lon;timestamp;temperature;humidity
15717;DHT22;7960;50.908;4.204;2022-12-29T00:02:02;11.20;99.90
15717;DHT22;7960;50.908;4.204;2022-12-29T00:04:29;11.20;99.90
15717;DHT22;7960;50.908;4.204;2022-12-29T00:06:57;11.20;99.90
15717;DHT22;7960;50.908;4.204;2022-12-29T00:09:25;11.20;99.90
15717;DHT22;7960;50.908;4.204;2022-12-29T00:11:52;11.20;99.90
15717;DHT22;7960;50.908;4.204;2022-12-29T00:14:19;11.30;99.90
15717;DHT22;7960;50.908;4.204;2022-12-29T00:17:04;11.30;99.90
15717;DHT22;7960;50.908;4.204;2022-12-29T00:22:17;11.20;99.90
15717;DHT22;7960;50.908;4.204;2022-12-29T00:25:02;11.40;99.90
15717;DHT22;7960;50.908;4.204;2022-12-29T00:27:46;11.30;99.90
15717;DHT22;7960;50.908;4.204;2022-12-29T00:30:31;11.30;99.90
15717;DHT22;7960;50.908;4.204;2022-12-29T00:33:16;11.30;99.90
15717;DHT22;7960;50.908;4.204;2022-12-29T00:36:00;11.40;99.90
15717;DHT22;7960;50.908;4.204;2022-12-29T00:38:29;11.50;99.90
15717;DHT22;7960;50.908;4.204;2022-12-29T00:41:15;11.40;99.90
15717;DHT22;7960;50.908;4.204;2022-12-29T00:43:59;11.40;99.90
15717;DHT22;7960;50.908;4.204;2022-12-29T00:46:31;11.40;99.90
15717;DHT22;7960;50.908;4.204;2022-12-29T00:48:59;11.50;99.90
15717;DHT22;7960;50.908;4.204;2022-12-29T00:51:43;11.50;99.90
15717;DHT22;7960;50.908;4.204;2022-12-29T00:54:12;11.50;99.90
15717;DHT22;7960;50.908;4.204;2022-12-29T00:56:38;11.60;99.90
15717;DHT22;7960;50.908;4.204;2022-12-29T00:59:08;11.60;99.90
15717;DHT22;7960;50.908;4.204;2022-12-29T01:01:36;11.50;99.90
15717;DHT22;7960;50.908;4.204;2022-12-29T01:04:03;11.40;99.90
15717;DHT22;7960;50.908;4.204;2022-12-29T01:06:31;11.50;99.90
15717;DHT22;7960;50.908;4.204;2022-12-29T01:08:58;11.40;99.90
15717;DHT22;7960;50.908;4.204;2022-12-29T01:11:43;11.30;99.90
15717;DHT22;7960;50.908;4.204;2022-12-29T01:14:10;11.30;99.90
15717;DHT22;7960;50.908;4.204;2022-12-29T01:16:37;11.40;99.90
15717;DHT22;7960;50.908;4.204;2022-12-29T01:19:04;11.40;99.90
15717;DHT22;7960;50.908;4.204;2022-12-29T01:21:31;11.40;99.90
15717;DHT22;7960;50.908;4.204;2022-12-29T01:23:58;11.30;99.90
15717;DHT22;7960;50.908;4.204;2022-12-29T01:26:25;11.30;99.90
15717;DHT22;7960;50.908;4.204;2022-12-29T01:28:53;11.30;99.90
15717;DHT22;7960;50.908;4.204;2022-12-29T01:31:20;11.20;99.90
15717;DHT22;7960;50.908;4.204;2022-12-29T01:33:47;11.10;99.90
15717;DHT22;7960;50.908;4.204;2022-12-29T01:36:16;11.10;99.90
15717;DHT22;7960;50.908;4.204;2022-12-29T01:38:43;11.10;99.90
15717;DHT22;7960;50.908;4.204;2022-12-29T01:41:12;11.10;99.90
15717;DHT22;7960;50.908;4.204;2022-12-29T02:01:06;10.80;99.90
15717;DHT22;7960;50.908;4.204;2022-12-29T02:03:34;10.90;99.90
15717;DHT22;7960;50.908;4.204;2022-12-29T02:06:04;10.90;99.90
15717;DHT22;7960;50.908;4.204;2022-12-29T02:08:33;10.80;99.90
15717;DHT22;7960;50.908;4.204;2022-12-29T02:11:01;10.80;99.90
15717;DHT22;7960;50.908;4.204;2022-12-29T02:13:28;10.80;99.90
15717;DHT22;7960;50.908;4.204;2022-12-29T02:16:04;10.70;99.90
15717;DHT22;7960;50.908;4.204;2022-12-29T02:18:43;10.80;99.90
15717;DHT22;7960;50.908;4.204;2022-12-29T02:24:45;10.50;99.90
15717;DHT22;7960;50.908;4.204;2022-12-29T03:08:24;10.20;99.90
15717;DHT22;7960;50.908;4.204;2022-12-29T03:11:00;10.20;99.90
15717;DHT22;7960;50.908;4.204;2022-12-29T03:41:10;10.30;99.90
15717;DHT22;7960;50.908;4.204;2022-12-29T03:43:38;10.30;99.90
15717;DHT22;7960;50.908;4.204;2022-12-29T03:46:05;10.30;99.90
15717;DHT22;7960;50.908;4.204;2022-12-29T03:48:32;10.30;99.90
15717;DHT22;7960;50.908;4.204;2022-12-29T03:50:59;10.30;99.90
15717;DHT22;7960;50.908;4.204;2022-12-29T03:53:27;10.30;99.90
15717;DHT22;7960;50.908;4.204;2022-12-29T03:55:54;10.30;99.90
15717;DHT22;7960;50.908;4.204;2022-12-29T03:58:21;10.30;99.90
15717;DHT22;7960;50.908;4.204;2022-12-29T04:00:47;10.30;99.90
15717;DHT22;7960;50.908;4.204;2022-12-29T04:03:14;10.30;99.90
15717;DHT22;7960;50.908;4.204;2022-12-29T04:05:41;10.20;99.90
15717;DHT22;7960;50.908;4.204;2022-12-29T04:08:08;10.10;99.90
15717;DHT22;7960;50.908;4.204;2022-12-29T04:10:36;10.20;99.90
15717;DHT22;7960;50.908;4.204;2022-12-29T04:13:03;10.10;99.90
15717;DHT22;7960;50.908;4.204;2022-12-29T04:15:30;10.10;99.90
15717;DHT22;7960;50.908;4.204;2022-12-29T04:17:57;10.20;99.90
15717;DHT22;7960;50.908;4.204;2022-12-29T04:20:24;10.10;99.90
15717;DHT22;7960;50.908;4.204;2022-12-29T04:23:08;10.00;99.90
15717;DHT22;7960;50.908;4.204;2022-12-29T04:25:36;10.10;99.90
15717;DHT22;7960;50.908;4.204;2022-12-29T04:28:03;10.10;99.90
15717;DHT22;7960;50.908;4.204;2022-12-29T04:57:31;10.10;99.90
15717;DHT22;7960;50.908;4.204;2022-12-29T05:00:00;10.20;99.90
15717;DHT22;7960;50.908;4.204;2022-12-29T05:02:27;10.20;99.90
15717;DHT22;7960;50.908;4.204;2022-12-29T05:04:53;10.20;99.90
15717;DHT22;7960;50.908;4.204;2022-12-29T05:07:20;10.20;99.90
15717;DHT22;7960;50.908;4.204;2022-12-29T05:09:47;10.20;99.90
15717;DHT22;7960;50.908;4.204;2022-12-29T05:12:14;10.20;99.90
15717;DHT22;7960;50.908;4.204;2022-12-29T05:14:41;10.30;99.90
15717;DHT22;7960;50.908;4.204;2022-12-29T05:17:09;10.30;99.90
15717;DHT22;7960;50.908;4.204;2022-12-29T05:19:36;10.30;99.90
15717;DHT22;7960;50.908;4.204;2022-12-29T05:22:03;10.20;99.90
15717;DHT22;7960;50.908;4.204;2022-12-29T05:24:30;10.40;99.90
15717;DHT22;7960;50.908;4.204;2022-12-29T05:26:57;10.30;99.90
15717;DHT22;7960;50.908;4.204;2022-12-29T05:29:24;10.30;99.90
15717;DHT22;7960;50.908;4.204;2022-12-29T05:31:50;10.30;99.90
15717;DHT22;7960;50.908;4.204;2022-12-29T05:34:19;10.30;99.90
15717;DHT22;7960;50.908;4.204;2022-12-29T05:36:45;10.30;99.90
15717;DHT22;7960;50.908;4.204;2022-12-29T05:39:12;10.30;99.90
15717;DHT22;7960;50.908;4.204;2022-12-29T05:41:39;10.30;99.90
15717;DHT22;7960;50.908;4.204;2022-12-29T05:44:06;10.30;99.90
15717;DHT22;7960;50.908;4.204;2022-12-29T05:46:33;10.30;99.90
15717;DHT22;7960;50.908;4.204;2022-12-29T05:48:59;10.30;99.90
15717;DHT22;7960;50.908;4.204;2022-12-29T05:51:28;10.20;99.90
15717;DHT22;7960;50.908;4.204;2022-12-29T05:53:54;10.20;99.90
15717;DHT22;7960;50.908;4.204;2022-12-29T05:56:21;10.20;99.90
15717;DHT22;7960;50.908;4.204;2022-12-29T05:58:48;10.30;99.90
15717;DHT22;7960;50.908;4.204;2022-12-29T06:01:15;10.20;99.90
15717;DHT22;7960;50.908;4.204;2022-12-29T06:03:42;10.20;99.90
15717;DHT22;7960;50.908;4.204;2022-12-29T06:11:05;10.20;99.90
15717;DHT22;7960;50.908;4.204;2022-12-29T06:13:32;10.30;99.90
15717;DHT22;7960;50.908;4.204;2022-12-29T06:15:59;10.20;99.90
15717;DHT22;7960;50.908;4.204;2022-12-29T06:30:43;10.20;99.90
15717;DHT22;7960;50.908;4.204;2022-12-29T06:33:11;10.30;99.90
15717;DHT22;7960;50.908;4.204;2022-12-29T06:35:38;10.30;99.90
15717;DHT22;7960;50.908;4.204;2022-12-29T06:38:05;10.40;99.90
15717;DHT22;7960;50.908;4.204;2022-12-29T06:40:32;10.40;99.90
15717;DHT22;7960;50.908;4.204;2022-12-29T06:43:00;10.30;99.90
15717;DHT22;7960;50.908;4.204;2022-12-29T06:45:27;10.30;99.90
15717;DHT22;7960;50.908;4.204;2022-12-29T06:47:53;10.40;99.90
15717;DHT22;7960;50.908;4.204;2022-12-29T06:50:20;10.40;99.90
15717;DHT22;7960;50.908;4.204;2022-12-29T06:52:47;10.40;99.90
15717;DHT22;7960;50.908;4.204;2022-12-29T06:55:14;10.40;99.90
15717;DHT22;7960;50.908;4.204;2022-12-29T06:57:41;10.40;99.90
15717;DHT22;7960;50.908;4.204;2022-12-29T07:00:11;10.30;99.90
15717;DHT22;7960;50.908;4.204;2022-12-29T07:02:37;10.30;99.90
15717;DHT22;7960;50.908;4.204;2022-12-29T07:05:05;10.40;99.90
15717;DHT22;7960;50.908;4.204;2022-12-29T07:07:33;10.30;99.90
15717;DHT22;7960;50.908;4.204;2022-12-29T07:09:59;10.30;99.90
15717;DHT22;7960;50.908;4.204;2022-12-29T07:12:26;10.30;99.90
15717;DHT22;7960;50.908;4.204;2022-12-29T07:14:53;10.30;99.90
15717;DHT22;7960;50.908;4.204;2022-12-29T07:17:21;10.30;99.90
15717;DHT22;7960;50.908;4.204;2022-12-29T07:19:48;10.40;99.90
15717;DHT22;7960;50.908;4.204;2022-12-29T07:22:15;10.40;99.90
15717;DHT22;7960;50.908;4.204;2022-12-29T07:24:42;10.40;99.90
15717;DHT22;7960;50.908;4.204;2022-12-29T07:27:09;10.40;99.90
15717;DHT22;7960;50.908;4.204;2022-12-29T07:29:36;10.40;99.90
15717;DHT22;7960;50.908;4.204;2022-12-29T07:32:04;10.40;99.90
15717;DHT22;7960;50.908;4.204;2022-12-29T07:34:32;10.40;99.90
15717;DHT22;7960;50.908;4.204;2022-12-29T07:36:59;10.30;99.90
15717;DHT22;7960;50.908;4.204;2022-12-29T07:39:25;10.30;99.90
15717;DHT22;7960;50.908;4.204;2022-12-29T07:41:52;10.30;99.90
15717;DHT22;7960;50.908;4.204;2022-12-29T07:44:19;10.30;99.90
15717;DHT22;7960;50.908;4.204;2022-12-29T07:46:46;10.30;99.90
15717;DHT22;7960;50.908;4.204;2022-12-29T07:49:13;10.30;99.90
15717;DHT22;7960;50.908;4.204;2022-12-29T07:51:41;10.30;99.90
15717;DHT22;7960;50.908;4.204;2022-12-29T07:54:08;10.40;99.90
15717;DHT22;7960;50.908;4.204;2022-12-29T07:56:35;10.40;99.90
15717;DHT22;7960;50.908;4.204;2022-12-29T07:59:02;10.40;99.90
15717;DHT22;7960;50.908;4.204;2022-12-29T08:01:32;10.30;99.90
15717;DHT22;7960;50.908;4.204;2022-12-29T08:03:59;10.30;99.90
15717;DHT22;7960;50.908;4.204;2022-12-29T08:06:26;10.30;99.90
15717;DHT22;7960;50.908;4.204;2022-12-29T08:08:55;10.40;99.90
15717;DHT22;7960;50.908;4.204;2022-12-29T08:11:22;10.40;99.90
15717;DHT22;7960;50.908;4.204;2022-12-29T08:13:49;10.40;99.90
15717;DHT22;7960;50.908;4.204;2022-12-29T08:16:18;10.30;99.90
15717;DHT22;7960;50.908;4.204;2022-12-29T08:18:44;10.30;99.90
15717;DHT22;7960;50.908;4.204;2022-12-29T08:21:12;10.50;99.90
15717;DHT22;7960;50.908;4.204;2022-12-29T08:23:51;10.30;99.90
15717;DHT22;7960;50.908;4.204;2022-12-29T08:26:20;10.40;99.90
15717;DHT22;7960;50.908;4.204;2022-12-29T08:28:47;10.40;99.90
15717;DHT22;7960;50.908;4.204;2022-12-29T08:31:16;10.40;99.90
15717;DHT22;7960;50.908;4.204;2022-12-29T08:33:43;10.30;99.90
15717;DHT22;7960;50.908;4.204;2022-12-29T08:36:10;10.50;99.90
15717;DHT22;7960;50.908;4.204;2022-12-29T08:38:37;10.20;99.90
15717;DHT22;7960;50.908;4.204;2022-12-29T08:41:10;10.40;99.90
15717;DHT22;7960;50.908;4.204;2022-12-29T08:43:40;10.30;99.90
15717;DHT22;7960;50.908;4.204;2022-12-29T08:46:07;10.20;99.90
15717;DHT22;7960;50.908;4.204;2022-12-29T08:48:34;10.20;99.90
15717;DHT22;7960;50.908;4.204;2022-12-29T08:51:01;10.10;99.90
15717;DHT22;7960;50.908;4.204;2022-12-29T08:53:28;10.10;99.90
15717;DHT22;7960;50.908;4.204;2022-12-29T08:55:57;10.10;99.90
15717;DHT22;7960;50.908;4.204;2022-12-29T08:58:24;10.10;99.90
15717;DHT22;7960;50.908;4.204;2022-12-29T09:00:53;10.00;99.90
15717;DHT22;7960;50.908;4.204;2022-12-29T09:03:21;10.00;99.90
15717;DHT22;7960;50.908;4.204;2022-12-29T09:05:50;9.90;99.90
15717;DHT22;7960;50.908;4.204;2022-12-29T09:08:17;9.90;99.90
15717;DHT22;7960;50.908;4.204;2022-12-29T09:10:45;9.70;99.90
15717;DHT22;7960;50.908;4.204;2022-12-29T09:13:13;9.60;99.90
15717;DHT22;7960;50.908;4.204;2022-12-29T09:15:40;9.60;99.90
15717;DHT22;7960;50.908;4.204;2022-12-29T09:18:10;9.50;99.90
15717;DHT22;7960;50.908;4.204;2022-12-29T09:20:38;9.50;99.90
15717;DHT22;7960;50.908;4.204;2022-12-29T09:23:05;9.60;99.90
15717;DHT22;7960;50.908;4.204;2022-12-29T09:25:32;9.60;99.90
15717;DHT22;7960;50.908;4.204;2022-12-29T09:27:59;9.60;99.90
15717;DHT22;7960;50.908;4.204;2022-12-29T09:30:29;9.60;99.90
15717;DHT22;7960;50.908;4.204;2022-12-29T09:32:56;9.60;99.90
15717;DHT22;7960;50.908;4.204;2022-12-29T09:35:24;9.50;99.90
15717;DHT22;7960;50.908;4.204;2022-12-29T09:37:51;9.50;99.90
15717;DHT22;7960;50.908;4.204;2022-12-29T09:40:25;9.50;99.90
15717;DHT22;7960;50.908;4.204;2022-12-29T09:43:04;9.40;99.90
15717;DHT22;7960;50.908;4.204;2022-12-29T09:45:35;9.30;99.90
15717;DHT22;7960;50.908;4.204;2022-12-29T09:48:04;9.30;99.90
15717;DHT22;7960;50.908;4.204;2022-12-29T09:50:35;9.40;99.90
15717;DHT22;7960;50.908;4.204;2022-12-29T09:53:09;9.40;99.90
15717;DHT22;7960;50.908;4.204;2022-12-29T09:55:40;9.50;99.90
15717;DHT22;7960;50.908;4.204;2022-12-29T09:58:14;9.60;99.90
15717;DHT22;7960;50.908;4.204;2022-12-29T10:00:48;9.70;99.90
15717;DHT22;7960;50.908;4.204;2022-12-29T10:03:18;9.80;99.90
15717;DHT22;7960;50.908;4.204;2022-12-29T10:05:51;9.80;99.90
15717;DHT22;7960;50.908;4.204;2022-12-29T10:08:28;9.90;99.90
15717;DHT22;7960;50.908;4.204;2022-12-29T10:10:58;9.90;99.90
15717;DHT22;7960;50.908;4.204;2022-12-29T10:13:36;9.90;99.90
15717;DHT22;7960;50.908;4.204;2022-12-29T10:16:13;9.90;99.90
15717;DHT22;7960;50.908;4.204;2022-12-29T10:19:06;9.90;99.90
15717;DHT22;7960;50.908;4.204;2022-12-29T10:21:46;10.00;99.90
15717;DHT22;7960;50.908;4.204;2022-12-29T10:24:14;10.10;99.90
15717;DHT22;7960;50.908;4.204;2022-12-29T10:26:43;10.10;99.90
15717;DHT22;7960;50.908;4.204;2022-12-29T10:29:16;10.10;99.90
15717;DHT22;7960;50.908;4.204;2022-12-29T10:31:46;10.20;99.90
15717;DHT22;7960;50.908;4.204;2022-12-29T10:34:19;10.20;99.90
15717;DHT22;7960;50.908;4.204;2022-12-29T10:36:49;10.20;99.90
15717;DHT22;7960;50.908;4.204;2022-12-29T10:39:22;10.20;99.90
15717;DHT22;7960;50.908;4.204;2022-12-29T10:41:53;10.20;99.90
15717;DHT22;7960;50.908;4.204;2022-12-29T10:44:24;10.20;99.90
15717;DHT22;7960;50.908;4.204;2022-12-29T10:46:58;10.30;99.90
15717;DHT22;7960;50.908;4.204;2022-12-29T10:49:28;10.30;99.90
15717;DHT22;7960;50.908;4.204;2022-12-29T10:52:00;10.30;99.90
15717;DHT22;7960;50.908;4.204;2022-12-29T10:54:32;10.30;99.90
15717;DHT22;7960;50.908;4.204;2022-12-29T10:57:03;10.30;99.90
15717;DHT22;7960;50.908;4.204;2022-12-29T10:59:33;10.30;99.90
15717;DHT22;7960;50.908;4.204;2022-12-29T11:02:23;10.40;99.90
15717;DHT22;7960;50.908;4.204;2022-12-29T11:04:57;10.40;99.90
15717;DHT22;7960;50.908;4.204;2022-12-29T11:07:30;10.40;99.90
15717;DHT22;7960;50.908;4.204;2022-12-29T11:10:19;10.40;99.90
15717;DHT22;7960;50.908;4.204;2022-12-29T11:12:57;10.40;99.90
15717;DHT22;7960;50.908;4.204;2022-12-29T11:15:24;10.40;99.90
15717;DHT22;7960;50.908;4.204;2022-12-29T11:17:53;10.30;99.90
15717;DHT22;7960;50.908;4.204;2022-12-29T11:20:29;10.30;99.90
15717;DHT22;7960;50.908;4.204;2022-12-29T11:22:58;10.20;99.90
15717;DHT22;7960;50.908;4.204;2022-12-29T11:25:26;10.20;99.90
15717;DHT22;7960;50.908;4.204;2022-12-29T11:27:57;10.20;99.90
15717;DHT22;7960;50.908;4.204;2022-12-29T11:30:27;10.30;99.90
15717;DHT22;7960;50.908;4.204;2022-12-29T11:32:55;10.30;99.90
15717;DHT22;7960;50.908;4.204;2022-12-29T11:35:31;10.30;99.90
15717;DHT22;7960;50.908;4.204;2022-12-29T11:38:00;10.30;99.90
15717;DHT22;7960;50.908;4.204;2022-12-29T11:40:28;10.30;99.90
15717;DHT22;7960;50.908;4.204;2022-12-29T11:42:57;10.30;99.90
15717;DHT22;7960;50.908;4.204;2022-12-29T11:45:26;10.30;99.90
15717;DHT22;7960;50.908;4.204;2022-12-29T11:47:57;10.30;99.90
15717;DHT22;7960;50.908;4.204;2022-12-29T11:50:27;10.30;99.90
15717;DHT22;7960;50.908;4.204;2022-12-29T11:53:04;10.20;99.90
15717;DHT22;7960;50.908;4.204;2022-12-29T11:55:32;10.10;99.90
15717;DHT22;7960;50.908;4.204;2022-12-29T11:58:02;10.10;99.90
15717;DHT22;7960;50.908;4.204;2022-12-29T12:00:32;10.10;99.90
15717;DHT22;7960;50.908;4.204;2022-12-29T12:03:02;10.10;99.90
15717;DHT22;7960;50.908;4.204;2022-12-29T12:05:38;10.10;99.90
15717;DHT22;7960;50.908;4.204;2022-12-29T12:08:11;10.10;99.90
15717;DHT22;7960;50.908;4.204;2022-12-29T12:10:44;10.10;99.90
15717;DHT22;7960;50.908;4.204;2022-12-29T12:13:18;10.10;99.90
15717;DHT22;7960;50.908;4.204;2022-12-29T12:15:51;10.10;99.90
15717;DHT22;7960;50.908;4.204;2022-12-29T12:18:28;10.10;99.90
15717;DHT22;7960;50.908;4.204;2022-12-29T12:21:04;10.10;99.90
15717;DHT22;7960;50.908;4.204;2022-12-29T12:23:38;10.00;99.90
15717;DHT22;7960;50.908;4.204;2022-12-29T12:26:11;10.00;99.90
15717;DHT22;7960;50.908;4.204;2022-12-29T12:28:45;9.90;99.90
15717;DHT22;7960;50.908;4.204;2022-12-29T12:31:21;9.90;99.90
15717;DHT22;7960;50.908;4.204;2022-12-29T12:33:57;9.90;99.90
15717;DHT22;7960;50.908;4.204;2022-12-29T12:36:48;10.00;99.90
15717;DHT22;7960;50.908;4.204;2022-12-29T12:39:26;10.00;99.90
15717;DHT22;7960;50.908;4.204;2022-12-29T12:42:04;10.00;99.90
15717;DHT22;7960;50.908;4.204;2022-12-29T12:44:38;10.00;99.90
15717;DHT22;7960;50.908;4.204;2022-12-29T12:47:39;10.10;99.90
15717;DHT22;7960;50.908;4.204;2022-12-29T12:50:17;10.10;99.90
15717;DHT22;7960;50.908;4.204;2022-12-29T12:53:03;10.00;99.90
15717;DHT22;7960;50.908;4.204;2022-12-29T12:55:53;10.10;99.90
15717;DHT22;7960;50.908;4.204;2022-12-29T12:58:29;10.10;99.90
15717;DHT22;7960;50.908;4.204;2022-12-29T13:01:12;10.00;99.90
15717;DHT22;7960;50.908;4.204;2022-12-29T13:03:53;10.00;99.90
15717;DHT22;7960;50.908;4.204;2022-12-29T13:06:33;10.00;99.90
15717;DHT22;7960;50.908;4.204;2022-12-29T13:09:16;10.00;99.90
15717;DHT22;7960;50.908;4.204;2022-12-29T13:12:00;10.10;99.90
15717;DHT22;7960;50.908;4.204;2022-12-29T13:14:40;10.10;99.90
15717;DHT22;7960;50.908;4.204;2022-12-29T13:17:15;10.10;99.90
15717;DHT22;7960;50.908;4.204;2022-12-29T13:19:50;10.20;99.90
15717;DHT22;7960;50.908;4.204;2022-12-29T13:22:24;10.20;99.90
15717;DHT22;7960;50.908;4.204;2022-12-29T13:25:03;10.30;99.90
15717;DHT22;7960;50.908;4.204;2022-12-29T13:27:40;10.50;99.90
15717;DHT22;7960;50.908;4.204;2022-12-29T13:30:14;10.50;99.90
15717;DHT22;7960;50.908;4.204;2022-12-29T13:32:50;10.50;99.90
15717;DHT22;7960;50.908;4.204;2022-12-29T13:35:29;10.40;99.90
15717;DHT22;7960;50.908;4.204;2022-12-29T13:38:00;10.40;99.90
15717;DHT22;7960;50.908;4.204;2022-12-29T13:40:34;10.40;99.90
15717;DHT22;7960;50.908;4.204;2022-12-29T13:43:05;10.40;99.90
15717;DHT22;7960;50.908;4.204;2022-12-29T13:45:33;10.30;99.90
15717;DHT22;7960;50.908;4.204;2022-12-29T13:48:03;10.30;99.90
15717;DHT22;7960;50.908;4.204;2022-12-29T13:50:36;10.20;99.90
15717;DHT22;7960;50.908;4.204;2022-12-29T13:53:08;10.20;99.90
15717;DHT22;7960;50.908;4.204;2022-12-29T13:55:40;10.20;99.90
15717;DHT22;7960;50.908;4.204;2022-12-29T13:58:14;10.10;99.90
15717;DHT22;7960;50.908;4.204;2022-12-29T14:00:52;10.10;99.90
15717;DHT22;7960;50.908;4.204;2022-12-29T14:06:16;10.00;99.90
15717;DHT22;7960;50.908;4.204;2022-12-29T14:08:45;9.90;99.90
15717;DHT22;7960;50.908;4.204;2022-12-29T14:11:15;9.80;99.90
15717;DHT22;7960;50.908;4.204;2022-12-29T14:13:46;9.40;99.90
15717;DHT22;7960;50.908;4.204;2022-12-29T14:16:29;8.80;99.90
15717;DHT22;7960;50.908;4.204;2022-12-29T14:19:04;8.60;99.90
15717;DHT22;7960;50.908;4.204;2022-12-29T14:21:32;8.40;99.90
15717;DHT22;7960;50.908;4.204;2022-12-29T14:33:26;8.20;99.90
15717;DHT22;7960;50.908;4.204;2022-12-29T14:35:54;8.20;99.90
15717;DHT22;7960;50.908;4.204;2022-12-29T14:38:29;8.20;99.90
15717;DHT22;7960;50.908;4.204;2022-12-29T14:44:16;8.20;99.90
15717;DHT22;7960;50.908;4.204;2022-12-29T14:46:55;8.20;99.90
15717;DHT22;7960;50.908;4.204;2022-12-29T14:49:25;8.30;99.90
15717;DHT22;7960;50.908;4.204;2022-12-29T14:51:54;8.20;99.90
15717;DHT22;7960;50.908;4.204;2022-12-29T14:54:45;8.20;99.90
15717;DHT22;7960;50.908;4.204;2022-12-29T14:57:29;8.10;99.90
15717;DHT22;7960;50.908;4.204;2022-12-29T15:00:06;8.00;99.90
15717;DHT22;7960;50.908;4.204;2022-12-29T15:02:39;8.00;99.90
15717;DHT22;7960;50.908;4.204;2022-12-29T15:05:23;8.00;99.90
15717;DHT22;7960;50.908;4.204;2022-12-29T15:07:52;7.90;99.90
15717;DHT22;7960;50.908;4.204;2022-12-29T15:10:20;7.90;99.90
15717;DHT22;7960;50.908;4.204;2022-12-29T15:12:52;7.80;99.90
15717;DHT22;7960;50.908;4.204;2022-12-29T15:15:22;7.90;99.90
15717;DHT22;7960;50.908;4.204;2022-12-29T15:17:50;7.80;99.90
15717;DHT22;7960;50.908;4.204;2022-12-29T15:20:23;7.80;99.90
15717;DHT22;7960;50.908;4.204;2022-12-29T15:22:54;7.90;99.90
15717;DHT22;7960;50.908;4.204;2022-12-29T15:25:23;7.90;99.90
15717;DHT22;7960;50.908;4.204;2022-12-29T15:27:52;7.90;99.90
15717;DHT22;7960;50.908;4.204;2022-12-29T15:30:20;7.90;99.90
15717;DHT22;7960;50.908;4.204;2022-12-29T15:32:48;7.90;99.90
15717;DHT22;7960;50.908;4.204;2022-12-29T15:35:29;7.90;99.90
15717;DHT22;7960;50.908;4.204;2022-12-29T15:37:57;7.90;99.90
15717;DHT22;7960;50.908;4.204;2022-12-29T15:40:27;7.90;99.90
15717;DHT22;7960;50.908;4.204;2022-12-29T15:43:13;8.00;99.90
15717;DHT22;7960;50.908;4.204;2022-12-29T15:45:42;8.00;99.90
15717;DHT22;7960;50.908;4.204;2022-12-29T15:48:15;8.00;99.90
15717;DHT22;7960;50.908;4.204;2022-12-29T15:50:45;8.00;99.90
15717;DHT22;7960;50.908;4.204;2022-12-29T15:53:19;8.00;99.90
15717;DHT22;7960;50.908;4.204;2022-12-29T15:55:55;7.90;99.90
15717;DHT22;7960;50.908;4.204;2022-12-29T15:58:30;7.90;99.90
15717;DHT22;7960;50.908;4.204;2022-12-29T16:00:58;7.90;99.90
15717;DHT22;7960;50.908;4.204;2022-12-29T16:03:35;7.90;99.90
15717;DHT22;7960;50.908;4.204;2022-12-29T16:06:26;7.80;99.90
15717;DHT22;7960;50.908;4.204;2022-12-29T16:08:56;7.80;99.90
15717;DHT22;7960;50.908;4.204;2022-12-29T16:11:27;7.80;99.90
15717;DHT22;7960;50.908;4.204;2022-12-29T16:13:56;7.80;99.90
15717;DHT22;7960;50.908;4.204;2022-12-29T16:16:26;7.90;99.90
15717;DHT22;7960;50.908;4.204;2022-12-29T16:18:54;7.90;99.90
15717;DHT22;7960;50.908;4.204;2022-12-29T16:21:25;7.90;99.90
15717;DHT22;7960;50.908;4.204;2022-12-29T16:23:55;7.90;99.90
15717;DHT22;7960;50.908;4.204;2022-12-29T16:26:24;7.90;99.90
15717;DHT22;7960;50.908;4.204;2022-12-29T16:28:54;7.90;99.90
15717;DHT22;7960;50.908;4.204;2022-12-29T16:31:23;7.90;99.90
15717;DHT22;7960;50.908;4.204;2022-12-29T16:33:52;7.90;99.90
15717;DHT22;7960;50.908;4.204;2022-12-29T16:36:29;7.90;99.90
15717;DHT22;7960;50.908;4.204;2022-12-29T16:42:33;7.80;99.90
15717;DHT22;7960;50.908;4.204;2022-12-29T16:45:33;7.80;99.90
15717;DHT22;7960;50.908;4.204;2022-12-29T16:48:16;7.80;99.90
15717;DHT22;7960;50.908;4.204;2022-12-29T16:50:44;7.80;99.90
15717;DHT22;7960;50.908;4.204;2022-12-29T16:53:19;7.80;99.90
15717;DHT22;7960;50.908;4.204;2022-12-29T16:55:47;7.80;99.90
15717;DHT22;7960;50.908;4.204;2022-12-29T16:58:19;7.90;99.90
15717;DHT22;7960;50.908;4.204;2022-12-29T17:00:47;7.80;99.90
15717;DHT22;7960;50.908;4.204;2022-12-29T17:03:14;7.80;99.90
15717;DHT22;7960;50.908;4.204;2022-12-29T17:05:41;7.80;99.90
15717;DHT22;7960;50.908;4.204;2022-12-29T17:08:19;7.80;99.90
15717;DHT22;7960;50.908;4.204;2022-12-29T17:10:49;7.80;99.90
15717;DHT22;7960;50.908;4.204;2022-12-29T17:13:35;7.90;99.90
15717;DHT22;7960;50.908;4.204;2022-12-29T17:16:02;7.90;99.90
15717;DHT22;7960;50.908;4.204;2022-12-29T17:18:29;7.90;99.90
15717;DHT22;7960;50.908;4.204;2022-12-29T17:20:56;7.90;99.90
15717;DHT22;7960;50.908;4.204;2022-12-29T17:23:24;7.90;99.90
15717;DHT22;7960;50.908;4.204;2022-12-29T17:25:51;7.90;99.90
15717;DHT22;7960;50.908;4.204;2022-12-29T17:28:20;7.90;99.90
15717;DHT22;7960;50.908;4.204;2022-12-29T17:30:48;7.90;99.90
15717;DHT22;7960;50.908;4.204;2022-12-29T17:33:18;7.80;99.90
15717;DHT22;7960;50.908;4.204;2022-12-29T17:35:45;7.90;99.90
15717;DHT22;7960;50.908;4.204;2022-12-29T17:38:17;7.90;99.90
15717;DHT22;7960;50.908;4.204;2022-12-29T17:40:46;7.80;99.90
15717;DHT22;7960;50.908;4.204;2022-12-29T17:43:19;7.80;99.90
15717;DHT22;7960;50.908;4.204;2022-12-29T17:45:49;7.80;99.90
15717;DHT22;7960;50.908;4.204;2022-12-29T17:48:18;7.80;99.90
15717;DHT22;7960;50.908;4.204;2022-12-29T17:50:47;7.80;99.90
15717;DHT22;7960;50.908;4.204;2022-12-29T17:53:15;7.80;99.90
15717;DHT22;7960;50.908;4.204;2022-12-29T17:55:43;7.80;99.90
15717;DHT22;7960;50.908;4.204;2022-12-29T17:58:18;7.80;99.90
15717;DHT22;7960;50.908;4.204;2022-12-29T18:00:46;7.80;99.90
15717;DHT22;7960;50.908;4.204;2022-12-29T18:03:14;7.70;99.90
15717;DHT22;7960;50.908;4.204;2022-12-29T18:05:42;7.80;99.90
15717;DHT22;7960;50.908;4.204;2022-12-29T18:08:09;7.70;99.90
15717;DHT22;7960;50.908;4.204;2022-12-29T18:10:37;7.70;99.90
15717;DHT22;7960;50.908;4.204;2022-12-29T18:13:05;7.70;99.90
15717;DHT22;7960;50.908;4.204;2022-12-29T18:15:34;7.70;99.90
15717;DHT22;7960;50.908;4.204;2022-12-29T18:18:09;7.70;99.90
15717;DHT22;7960;50.908;4.204;2022-12-29T18:20:37;7.70;99.90
15717;DHT22;7960;50.908;4.204;2022-12-29T18:23:04;7.70;99.90
15717;DHT22;7960;50.908;4.204;2022-12-29T18:25:39;7.70;99.90
15717;DHT22;7960;50.908;4.204;2022-12-29T18:28:07;7.70;99.90
15717;DHT22;7960;50.908;4.204;2022-12-29T18:30:36;7.70;99.90
15717;DHT22;7960;50.908;4.204;2022-12-29T18:33:03;7.70;99.90
15717;DHT22;7960;50.908;4.204;2022-12-29T18:35:35;7.70;99.90
15717;DHT22;7960;50.908;4.204;2022-12-29T18:38:03;7.70;99.90
15717;DHT22;7960;50.908;4.204;2022-12-29T18:40:31;7.70;99.90
15717;DHT22;7960;50.908;4.204;2022-12-29T18:42:58;7.70;99.90
15717;DHT22;7960;50.908;4.204;2022-12-29T18:45:26;7.70;99.90
15717;DHT22;7960;50.908;4.204;2022-12-29T18:47:54;7.80;99.90
15717;DHT22;7960;50.908;4.204;2022-12-29T18:50:21;7.80;99.90
15717;DHT22;7960;50.908;4.204;2022-12-29T18:52:48;7.70;99.90